Port Chicago, California
Current Conditions -  °F | °C
As of 11:32 AM on Saturday 20 Dec 2014 (Local Time) from KCCR Reporting Station
Haze Haze  
Wind Chill: 60°   Ceiling: 7500
Heat Index: 60°   Visibility: 6mi
Dew Point: 54°   Wind: 3mph
Humidity: 80%   Direction: 180°S
Pressure: 30.21"   Gusts: NA
Location:  38.0121°N, 121.92°W
Report Text: KCCR 201932Z 18003KT 6SM BR FEW005 BKN075 16/12 A3021 RMK AO2 RAB09E17 P0000 T01560122
Loading
Personal Weather Stations






























Interactive Weather Map New forecast layout! Learn more

10-Day Weather Forecast

Advertisements
Track Severe Weather on mobile